Time;durP1;ratioP1;P1;durP2;ratioP2;P2;SDS_P1;SDS_P2;PMS_P1;PMS_P2;Temp;Humidity;BMP_temperature;BMP_pressure;BME280_temperature;BME280_humidity;BME280_pressure;Samples;Min_cycle;Max_cycle;Signal;HPM_P1;HPM_P2
2023/12/11 00:00:01;;;;;;;24.20;4.43;;;29.50;62.50;;;;;;4988162;28;20217;-73
2023/12/11 00:02:28;;;;;;;15.40;3.43;;;29.80;61.90;;;;;;4988670;28;20666;-71
2023/12/11 00:04:55;;;;;;;14.60;3.90;;;29.90;62.20;;;;;;4972657;28;20277;-72
2023/12/11 00:07:23;;;;;;;20.83;3.50;;;30.00;60.70;;;;;;4991156;28;20584;-74
2023/12/11 00:09:50;;;;;;;17.53;4.13;;;29.80;61.80;;;;;;4987403;28;20201;-71
2023/12/11 00:12:17;;;;;;;11.03;3.37;;;29.70;62.10;;;;;;4989752;28;20181;-73
2023/12/11 00:14:45;;;;;;;13.57;3.60;;;29.80;61.80;;;;;;4987154;28;20209;-72
2023/12/11 00:17:12;;;;;;;16.63;4.10;;;29.40;62.30;;;;;;4990444;28;20629;-66
2023/12/11 00:19:39;;;;;;;12.37;3.73;;;29.40;62.50;;;;;;4990225;28;20229;-71
2023/12/11 00:22:07;;;;;;;14.43;3.67;;;29.50;62.00;;;;;;4986883;28;20649;-70
2023/12/11 00:24:34;;;;;;;12.03;4.00;;;29.60;62.20;;;;;;4988018;28;20640;-69
2023/12/11 00:27:02;;;;;;;11.67;3.47;;;29.60;62.00;;;;;;4989160;28;20269;-71
2023/12/11 00:29:29;;;;;;;19.93;4.10;;;29.40;62.30;;;;;;4972863;28;20229;-68
2023/12/11 00:31:56;;;;;;;17.83;4.37;;;29.20;63.60;;;;;;4986237;28;20209;-70
2023/12/11 00:34:24;;;;;;;18.00;3.70;;;29.30;62.90;;;;;;4991012;28;20186;-70
2023/12/11 00:36:51;;;;;;;15.97;4.03;;;29.60;62.90;;;;;;4988865;28;20282;-70
2023/12/11 00:39:18;;;;;;;12.30;3.17;;;30.00;61.40;;;;;;4990166;28;20229;-70
2023/12/11 00:41:45;;;;;;;17.33;4.47;;;30.30;60.80;;;;;;4990828;28;20268;-71
2023/12/11 00:44:13;;;;;;;18.20;3.73;;;30.60;59.70;;;;;;4990387;28;20189;-69
2023/12/11 00:46:40;;;;;;;19.93;4.40;;;30.20;60.90;;;;;;4984704;28;20186;-69
2023/12/11 00:49:08;;;;;;;14.50;3.63;;;29.80;61.50;;;;;;4991668;28;20194;-72
2023/12/11 00:51:36;;;;;;;18.40;4.53;;;29.40;62.80;;;;;;4994104;28;20196;-72
2023/12/11 00:54:03;;;;;;;15.27;3.60;;;29.50;63.10;;;;;;4991812;28;20244;-70
2023/12/11 00:56:32;;;;;;;13.80;3.70;;;29.70;61.80;;;;;;4992984;28;20182;-67
2023/12/11 00:58:59;;;;;;;23.90;4.03;;;29.80;62.00;;;;;;4992184;28;20695;-66
2023/12/11 01:01:27;;;;;;;16.33;3.50;;;29.80;61.60;;;;;;4971512;28;20190;-64
2023/12/11 01:03:54;;;;;;;12.87;3.13;;;30.00;61.40;;;;;;4988952;28;20197;-67
2023/12/11 01:06:22;;;;;;;15.77;3.50;;;30.10;60.80;;;;;;4993934;28;20752;-65
2023/12/11 01:08:49;;;;;;;18.83;3.37;;;30.10;60.50;;;;;;4993790;28;20196;-69
2023/12/11 01:11:16;;;;;;;11.70;3.40;;;29.80;61.30;;;;;;4994065;28;20182;-70
2023/12/11 01:13:44;;;;;;;17.67;4.13;;;30.10;61.20;;;;;;4990346;28;20174;-69
2023/12/11 01:16:11;;;;;;;15.13;3.80;;;30.30;60.00;;;;;;4992461;28;20214;-67
2023/12/11 01:18:38;;;;;;;17.27;3.53;;;29.90;61.20;;;;;;4992969;28;20272;-67
2023/12/11 01:21:06;;;;;;;17.10;3.13;;;30.20;60.80;;;;;;4992281;28;20322;-70
2023/12/11 01:23:33;;;;;;;14.60;3.37;;;30.40;60.10;;;;;;4992833;28;20194;-72
2023/12/11 01:26:00;;;;;;;12.73;3.07;;;30.30;60.60;;;;;;4992180;28;20207;-67
2023/12/11 01:28:28;;;;;;;14.70;3.60;;;30.70;59.80;;;;;;4992794;28;20226;-71
2023/12/11 01:30:55;;;;;;;16.53;4.03;;;30.60;59.10;;;;;;4992248;28;20193;-65
2023/12/11 01:33:22;;;;;;;11.00;2.90;;;30.60;59.20;;;;;;4992173;28;20248;-67
2023/12/11 01:35:50;;;;;;;14.13;3.60;;;30.90;58.50;;;;;;4987020;28;20778;-67
2023/12/11 01:38:17;;;;;;;17.70;3.42;;;30.40;59.30;;;;;;4988550;28;20625;-68
2023/12/11 01:40:45;;;;;;;11.63;2.80;;;30.30;60.60;;;;;;4992055;28;20236;-72
2023/12/11 01:43:16;;;;;;;14.17;3.37;;;30.60;59.50;;;;;;4974100;28;20186;-72
2023/12/11 01:45:46;;;;;;;13.15;3.17;;;30.60;59.30;;;;;;4990319;28;20197;-65
2023/12/11 01:48:13;;;;;;;12.68;3.72;;;30.80;59.40;;;;;;4990093;28;20178;-66
2023/12/11 01:50:41;;;;;;;11.80;3.20;;;30.80;58.30;;;;;;4988096;28;20178;-66
2023/12/11 01:53:09;;;;;;;21.03;3.47;;;30.60;59.20;;;;;;4990226;28;20276;-68
2023/12/11 01:55:37;;;;;;;15.17;3.37;;;30.60;58.70;;;;;;4990416;28;20189;-68
2023/12/11 01:58:06;;;;;;;13.57;3.50;;;30.70;59.30;;;;;;4992647;28;20217;-68
2023/12/11 02:00:33;;;;;;;14.57;3.80;;;30.80;58.80;;;;;;4985692;28;20210;-72
2023/12/11 02:03:00;;;;;;;14.15;3.25;;;30.90;58.50;;;;;;4991087;28;20197;-70
2023/12/11 02:05:28;;;;;;;10.90;3.03;;;30.90;58.60;;;;;;4990909;28;20610;-70
2023/12/11 02:07:55;;;;;;;12.00;3.30;;;31.10;58.30;;;;;;4989414;28;20182;-71
2023/12/11 02:10:22;;;;;;;14.47;3.10;;;30.80;58.00;;;;;;4992012;28;20174;-76
2023/12/11 02:12:50;;;;;;;15.35;3.13;;;30.80;58.60;;;;;;4991630;28;20226;-71
2023/12/11 02:15:39;;;;;;;16.40;3.57;;;31.00;58.10;;;;;;4991075;28;20178;-72
2023/12/11 02:18:08;;;;;;;13.07;3.33;;;31.10;57.30;;;;;;4989711;28;20649;-70
2023/12/11 02:20:38;;;;;;;14.45;2.95;;;31.10;58.00;;;;;;4990374;28;20218;-71
2023/12/11 02:23:28;;;;;;;14.43;3.55;;;31.50;57.10;;;;;;4988752;28;20182;-69
2023/12/11 02:26:18;;;;;;;13.35;2.90;;;31.40;57.00;;;;;;4941216;28;20292;-73
2023/12/11 02:28:46;;;;;;;9.05;2.78;;;30.90;57.40;;;;;;4989889;28;20217;-74
2023/12/11 02:31:13;;;;;;;13.00;3.25;;;31.00;57.20;;;;;;4991868;28;20198;-72
2023/12/11 02:33:41;;;;;;;22.17;4.45;;;31.20;56.60;;;;;;4990408;28;20671;-74
2023/12/11 02:36:08;;;;;;;13.23;3.03;;;31.30;56.30;;;;;;4989031;28;20257;-73
2023/12/11 02:38:36;;;;;;;17.45;4.03;;;31.40;56.80;;;;;;4986194;28;20175;-74
2023/12/11 02:41:03;;;;;;;12.63;3.53;;;31.60;56.20;;;;;;4986148;28;20220;-74
2023/12/11 02:43:31;;;;;;;12.57;3.78;;;31.70;55.80;;;;;;4988544;28;20182;-74
2023/12/11 02:45:59;;;;;;;13.80;4.10;;;31.80;55.60;;;;;;4976535;28;20190;-72
2023/12/11 02:48:26;;;;;;;15.35;4.03;;;31.40;55.80;;;;;;4989968;28;20265;-71
2023/12/11 02:50:53;;;;;;;12.85;3.25;;;31.70;55.60;;;;;;4971245;28;21475;-75
2023/12/11 02:53:21;;;;;;;15.32;4.43;;;31.80;54.80;;;;;;4987596;28;20197;-69
2023/12/11 02:55:48;;;;;;;17.27;4.32;;;31.70;55.00;;;;;;4987828;28;20186;-74
2023/12/11 02:58:15;;;;;;;14.57;4.70;;;31.80;55.00;;;;;;4988965;28;20638;-70
2023/12/11 03:00:43;;;;;;;12.27;4.63;;;31.80;54.60;;;;;;4986528;28;20221;-72
2023/12/11 03:03:10;;;;;;;14.90;4.63;;;31.90;54.70;;;;;;4987890;28;20265;-70
2023/12/11 03:05:37;;;;;;;16.20;4.95;;;32.10;54.90;;;;;;4987840;28;20641;-70
2023/12/11 03:08:05;;;;;;;14.82;5.22;;;32.10;54.00;;;;;;4984538;28;20200;-73
2023/12/11 03:10:33;;;;;;;14.07;4.90;;;32.20;54.00;;;;;;4991519;28;20186;-73
2023/12/11 03:13:01;;;;;;;13.13;5.03;;;31.90;54.20;;;;;;4990750;28;20204;-73
2023/12/11 03:15:30;;;;;;;16.35;5.05;;;31.90;54.30;;;;;;4987447;28;20193;-75
2023/12/11 03:17:57;;;;;;;13.18;4.25;;;32.50;53.30;;;;;;4990241;28;20197;-70
2023/12/11 03:20:25;;;;;;;14.32;4.38;;;32.60;52.30;;;;;;4992122;28;20213;-69
2023/12/11 03:22:52;;;;;;;13.32;4.25;;;32.30;52.60;;;;;;4989060;28;20582;-71
2023/12/11 03:25:19;;;;;;;14.18;4.60;;;32.30;54.00;;;;;;4988767;28;20409;-70
2023/12/11 03:27:46;;;;;;;12.35;3.85;;;32.40;52.30;;;;;;4989853;28;20225;-65
2023/12/11 03:30:14;;;;;;;16.83;3.60;;;32.40;53.10;;;;;;4991220;28;20317;-74
2023/12/11 03:32:41;;;;;;;10.95;3.25;;;32.60;52.50;;;;;;4988386;28;20201;-73
2023/12/11 03:35:09;;;;;;;14.20;3.10;;;32.40;52.40;;;;;;4989041;28;20656;-73
2023/12/11 03:37:36;;;;;;;9.10;3.00;;;32.50;52.40;;;;;;4988476;28;20182;-72
2023/12/11 03:40:04;;;;;;;14.80;3.08;;;32.40;52.30;;;;;;4989785;28;20222;-72
2023/12/11 03:42:31;;;;;;;15.63;3.22;;;32.80;51.60;;;;;;4987397;28;20189;-72
2023/12/11 03:44:59;;;;;;;11.45;3.13;;;32.90;51.60;;;;;;4988555;28;20308;-73
2023/12/11 03:47:26;;;;;;;15.82;3.72;;;32.90;51.70;;;;;;4985245;28;20272;-73
2023/12/11 03:49:54;;;;;;;11.32;2.60;;;33.10;51.40;;;;;;4989053;28;20276;-73
2023/12/11 03:52:21;;;;;;;10.52;2.67;;;32.10;52.80;;;;;;4970611;28;20178;-72
2023/12/11 03:54:49;;;;;;;11.73;3.00;;;32.70;52.50;;;;;;4988140;28;20197;-70
2023/12/11 03:57:16;;;;;;;13.48;3.05;;;32.40;52.30;;;;;;4971034;28;20181;-73
2023/12/11 03:59:43;;;;;;;11.68;2.80;;;32.50;52.80;;;;;;4987885;28;20562;-72
2023/12/11 04:02:11;;;;;;;14.68;3.08;;;32.80;52.30;;;;;;4986747;28;20520;-71
2023/12/11 04:04:38;;;;;;;10.88;2.78;;;33.30;51.70;;;;;;4988191;28;20193;-70
2023/12/11 04:07:05;;;;;;;13.60;3.10;;;33.30;50.60;;;;;;4989706;28;20660;-66
2023/12/11 04:09:33;;;;;;;12.07;2.97;;;33.30;50.90;;;;;;4987687;28;20295;-66
2023/12/11 04:12:00;;;;;;;8.38;2.70;;;33.60;50.30;;;;;;4985244;28;20573;-66
2023/12/11 04:14:27;;;;;;;12.57;3.15;;;33.40;49.80;;;;;;4985151;28;20197;-72
2023/12/11 04:16:55;;;;;;;11.52;3.00;;;33.20;51.00;;;;;;4990580;28;20200;-72
2023/12/11 04:19:22;;;;;;;10.68;2.63;;;32.90;51.40;;;;;;4988956;28;20244;-71
2023/12/11 04:21:51;;;;;;;11.93;2.90;;;33.50;50.50;;;;;;4990585;28;20194;-71
2023/12/11 04:24:18;;;;;;;13.80;3.13;;;33.90;49.30;;;;;;4987954;28;20193;-70
2023/12/11 04:26:45;;;;;;;12.32;2.50;;;33.50;50.50;;;;;;4990422;28;20221;-67
2023/12/11 04:29:13;;;;;;;7.00;2.20;;;33.60;49.50;;;;;;4993911;28;20308;-72
2023/12/11 04:31:40;;;;;;;9.10;2.80;;;33.30;50.20;;;;;;4992672;28;20275;-67
2023/12/11 04:34:08;;;;;;;11.63;3.10;;;33.40;49.10;;;;;;4991840;28;20182;-73
2023/12/11 04:36:35;;;;;;;8.50;2.47;;;33.70;49.40;;;;;;4993395;28;20220;-74
2023/12/11 04:39:03;;;;;;;6.63;2.33;;;34.00;48.80;;;;;;4992800;28;20221;-73
2023/12/11 04:41:30;;;;;;;8.35;2.35;;;34.10;48.10;;;;;;4993451;28;20548;-70
2023/12/11 04:43:57;;;;;;;8.35;2.30;;;34.10;48.50;;;;;;4993878;28;20181;-66
2023/12/11 04:46:24;;;;;;;9.90;2.65;;;34.30;47.70;;;;;;4993630;28;20189;-72
2023/12/11 04:48:52;;;;;;;8.23;2.42;;;34.60;46.60;;;;;;4991593;28;20695;-70
2023/12/11 04:51:19;;;;;;;10.75;2.40;;;34.30;47.60;;;;;;4990270;28;20597;-74
2023/12/11 04:53:46;;;;;;;12.52;3.03;;;34.10;47.80;;;;;;4993110;28;20210;-72
2023/12/11 04:56:14;;;;;;;8.90;2.28;;;34.00;47.70;;;;;;4990813;28;20200;-70
2023/12/11 04:58:42;;;;;;;8.80;2.25;;;34.10;47.90;;;;;;4993558;28;20190;-70
2023/12/11 05:01:09;;;;;;;9.07;2.13;;;33.60;48.90;;;;;;4993456;28;20735;-69
2023/12/11 05:03:36;;;;;;;8.95;2.63;;;33.60;48.10;;;;;;4993334;28;20554;-72
2023/12/11 05:06:04;;;;;;;8.10;2.67;;;33.30;50.00;;;;;;4989126;28;20190;-71
2023/12/11 05:08:31;;;;;;;7.50;2.20;;;33.90;48.10;;;;;;4975467;28;20178;-66
2023/12/11 05:10:58;;;;;;;11.13;2.47;;;33.60;47.40;;;;;;4988005;28;20213;-74
2023/12/11 05:13:26;;;;;;;8.80;2.28;;;33.60;48.80;;;;;;4992592;28;20190;-69
2023/12/11 05:15:53;;;;;;;12.70;2.63;;;33.00;49.70;;;;;;4991389;28;20213;-70
2023/12/11 05:18:20;;;;;;;15.30;2.92;;;33.40;48.80;;;;;;4992625;28;20185;-67
2023/12/11 05:20:48;;;;;;;9.40;2.63;;;33.60;49.20;;;;;;4993966;28;20293;-66
2023/12/11 05:23:15;;;;;;;9.73;2.47;;;33.40;48.70;;;;;;4984587;28;20265;-66
2023/12/11 05:25:42;;;;;;;10.95;2.70;;;33.50;48.90;;;;;;4990285;28;20213;-66
2023/12/11 05:28:10;;;;;;;7.88;2.33;;;34.20;47.50;;;;;;4990464;28;20185;-66
2023/12/11 05:30:37;;;;;;;10.98;2.78;;;33.80;48.40;;;;;;4981279;28;20189;-65
2023/12/11 05:33:05;;;;;;;11.65;2.78;;;34.10;48.00;;;;;;4989449;28;20205;-72
2023/12/11 05:35:33;;;;;;;11.13;2.40;;;33.80;49.50;;;;;;4990791;28;20535;-72
2023/12/11 05:38:00;;;;;;;8.00;2.67;;;33.90;48.60;;;;;;4989677;28;20719;-64
2023/12/11 05:40:28;;;;;;;10.88;2.20;;;33.90;49.00;;;;;;4991530;28;20225;-66
2023/12/11 05:42:55;;;;;;;12.25;2.40;;;33.20;50.40;;;;;;4991135;28;20185;-65
2023/12/11 05:45:22;;;;;;;12.25;2.67;;;33.30;50.50;;;;;;4993311;28;20221;-67
2023/12/11 05:47:50;;;;;;;9.50;2.35;;;33.50;49.90;;;;;;4988775;28;20182;-67
2023/12/11 05:50:17;;;;;;;11.63;2.50;;;33.90;48.90;;;;;;4984378;28;20637;-70
2023/12/11 05:52:44;;;;;;;18.83;2.97;;;33.10;50.50;;;;;;4986324;28;20185;-67
2023/12/11 05:55:12;;;;;;;8.50;2.22;;;33.60;49.50;;;;;;4982850;28;20191;-65
2023/12/11 05:57:39;;;;;;;10.68;2.60;;;33.20;50.10;;;;;;4982884;28;20265;-71
2023/12/11 06:00:07;;;;;;;10.77;2.78;;;33.40;50.70;;;;;;4979582;28;20337;-68
2023/12/11 06:02:34;;;;;;;8.43;2.17;;;33.10;50.40;;;;;;4990646;28;20186;-67
2023/12/11 06:05:02;;;;;;;8.23;2.58;;;33.20;50.10;;;;;;4991037;28;20543;-68
2023/12/11 06:07:29;;;;;;;7.53;2.42;;;32.50;51.80;;;;;;4994303;28;20188;-71
2023/12/11 06:09:57;;;;;;;11.15;2.85;;;31.40;54.10;;;;;;4992810;28;20178;-69
2023/12/11 06:12:24;;;;;;;11.52;2.75;;;31.70;54.60;;;;;;4993708;28;20648;-73
2023/12/11 06:14:51;;;;;;;11.88;2.78;;;32.50;52.30;;;;;;4993477;28;20198;-69
2023/12/11 06:17:19;;;;;;;11.80;3.35;;;32.60;51.90;;;;;;4993796;28;20182;-70
2023/12/11 06:19:47;;;;;;;9.43;2.50;;;32.80;50.80;;;;;;4994756;28;20225;-72
2023/12/11 06:22:14;;;;;;;11.27;3.00;;;31.80;53.40;;;;;;4994624;28;20174;-69
2023/12/11 06:24:42;;;;;;;11.43;2.47;;;31.60;54.20;;;;;;4993653;28;20174;-69
2023/12/11 06:27:10;;;;;;;10.93;2.83;;;31.30;54.50;;;;;;4992343;28;20177;-66
2023/12/11 06:29:38;;;;;;;7.32;2.13;;;30.60;57.70;;;;;;4992951;28;20225;-68
2023/12/11 06:32:08;;;;;;;8.85;2.53;;;30.60;57.60;;;;;;4993055;28;20184;-70
2023/12/11 06:34:35;;;;;;;9.48;2.53;;;30.30;58.30;;;;;;4997968;28;20174;-69
2023/12/11 06:37:03;;;;;;;11.27;3.17;;;30.20;58.80;;;;;;4992028;28;20178;-70
2023/12/11 06:39:30;;;;;;;10.95;2.67;;;29.80;59.70;;;;;;4993975;28;20608;-66
2023/12/11 06:41:58;;;;;;;7.97;2.80;;;29.50;59.80;;;;;;4993989;28;21053;-70
2023/12/11 06:44:26;;;;;;;11.67;2.63;;;29.00;61.40;;;;;;4983951;28;20170;-68
2023/12/11 06:46:53;;;;;;;14.27;3.17;;;28.50;63.30;;;;;;4992686;28;20183;-68
2023/12/11 06:49:21;;;;;;;7.47;2.53;;;28.50;63.50;;;;;;4994360;28;20597;-70
2023/12/11 06:51:48;;;;;;;11.83;3.00;;;28.30;64.00;;;;;;4989827;28;20174;-73
2023/12/11 06:54:16;;;;;;;8.40;3.20;;;28.20;63.80;;;;;;4983767;28;20182;-68
2023/12/11 06:56:43;;;;;;;8.87;3.70;;;27.90;64.50;;;;;;4993340;28;20675;-70
2023/12/11 06:59:10;;;;;;;11.90;3.70;;;27.80;65.00;;;;;;4978740;28;20449;-69
2023/12/11 07:01:38;;;;;;;11.10;4.57;;;27.70;66.10;;;;;;4989493;28;20227;-69
2023/12/11 07:04:05;;;;;;;11.60;4.13;;;27.70;65.60;;;;;;4991383;28;20244;-70
2023/12/11 07:06:32;;;;;;;10.70;4.33;;;27.70;66.10;;;;;;4990560;28;20178;-69
2023/12/11 07:09:00;;;;;;;11.97;4.00;;;27.80;66.10;;;;;;4990754;28;20178;-69
2023/12/11 07:11:27;;;;;;;11.67;4.67;;;28.00;65.70;;;;;;4992417;28;20181;-71
2023/12/11 07:13:55;;;;;;;10.80;6.60;;;28.30;65.20;;;;;;4986744;28;20269;-71
2023/12/11 07:16:25;;;;;;;14.03;6.57;;;28.20;64.50;;;;;;4981654;28;20186;-72
2023/12/11 07:18:52;;;;;;;16.13;9.80;;;28.30;64.60;;;;;;4993601;28;20184;-72
2023/12/11 07:21:20;;;;;;;15.93;10.00;;;28.10;65.30;;;;;;4991769;28;20194;-72
2023/12/11 07:23:51;;;;;;;12.73;9.77;;;27.80;65.80;;;;;;4995448;28;20236;-72
2023/12/11 07:26:19;;;;;;;13.97;10.13;;;27.60;67.20;;;;;;4989130;28;20317;-73
2023/12/11 07:28:46;;;;;;;19.20;11.20;;;27.50;67.40;;;;;;4988618;28;20217;-72
2023/12/11 07:31:13;;;;;;;20.23;13.13;;;27.40;68.00;;;;;;4991640;28;20272;-71
2023/12/11 07:33:41;;;;;;;18.30;13.70;;;27.30;68.70;;;;;;4988430;28;20273;-72
2023/12/11 07:36:10;;;;;;;16.70;13.50;;;27.20;68.90;;;;;;4984660;28;20178;-72
2023/12/11 07:38:37;;;;;;;20.50;13.97;;;26.80;69.80;;;;;;4992261;28;20651;-72
2023/12/11 07:41:05;;;;;;;16.53;12.33;;;26.80;70.30;;;;;;4990263;28;20218;-71
2023/12/11 07:43:32;;;;;;;18.13;12.87;;;26.70;70.50;;;;;;4990536;28;20194;-71
2023/12/11 07:45:59;;;;;;;19.70;12.10;;;26.60;71.10;;;;;;4989447;28;20743;-71
2023/12/11 07:48:28;;;;;;;19.13;10.90;;;26.70;71.20;;;;;;4986988;28;20213;-66
2023/12/11 07:50:55;;;;;;;20.50;11.77;;;26.60;71.40;;;;;;4987379;28;20182;-72
2023/12/11 07:53:22;;;;;;;16.77;11.07;;;26.40;71.90;;;;;;4992465;28;20182;-72
2023/12/11 07:55:50;;;;;;;20.67;9.43;;;26.40;71.00;;;;;;4993174;28;20562;-70
2023/12/11 07:58:18;;;;;;;13.07;6.40;;;26.40;71.30;;;;;;4991439;28;20194;-72
2023/12/11 08:00:45;;;;;;;11.33;6.40;;;26.20;71.00;;;;;;4985434;28;20221;-73
2023/12/11 08:03:12;;;;;;;15.30;5.77;;;26.20;71.00;;;;;;4992984;28;20216;-72
2023/12/11 08:05:40;;;;;;;10.80;4.60;;;26.20;70.80;;;;;;4989412;28;20198;-72
2023/12/11 08:08:07;;;;;;;19.27;5.27;;;26.10;71.00;;;;;;4990679;28;20632;-72
2023/12/11 08:10:34;;;;;;;15.07;3.57;;;26.00;71.20;;;;;;4993461;28;20281;-72
2023/12/11 08:13:02;;;;;;;11.13;3.33;;;26.10;69.90;;;;;;4986854;28;20187;-71
2023/12/11 08:15:29;;;;;;;12.87;2.73;;;26.00;69.50;;;;;;4987633;28;20185;-71
2023/12/11 08:17:57;;;;;;;9.90;2.90;;;26.00;69.50;;;;;;4991370;28;20182;-73
2023/12/11 08:20:24;;;;;;;15.17;3.07;;;26.00;70.20;;;;;;4992542;28;20328;-73
2023/12/11 08:22:51;;;;;;;13.07;3.50;;;26.00;70.20;;;;;;4991930;28;20181;-73
2023/12/11 08:25:19;;;;;;;11.57;3.03;;;26.00;70.90;;;;;;4986069;28;20181;-72
2023/12/11 08:27:46;;;;;;;13.30;3.10;;;26.10;71.10;;;;;;4988824;28;20566;-72
2023/12/11 08:30:13;;;;;;;12.73;2.80;;;26.10;71.70;;;;;;4987861;28;20276;-68
2023/12/11 08:32:41;;;;;;;12.13;2.83;;;26.00;71.60;;;;;;4993558;28;20176;-70
2023/12/11 08:35:09;;;;;;;9.67;2.80;;;26.00;72.40;;;;;;4982636;28;20200;-70
2023/12/11 08:37:37;;;;;;;13.13;2.43;;;25.90;72.90;;;;;;4984174;28;20728;-70
2023/12/11 08:40:05;;;;;;;10.37;2.47;;;25.90;72.80;;;;;;4987394;28;20700;-70
2023/12/11 08:42:33;;;;;;;13.63;2.67;;;25.90;73.40;;;;;;4992687;28;20182;-66
2023/12/11 08:45:00;;;;;;;13.03;2.93;;;25.80;74.10;;;;;;4992639;28;20324;-68
2023/12/11 08:47:29;;;;;;;9.73;2.70;;;25.80;73.90;;;;;;4986066;28;20178;-73
2023/12/11 08:49:56;;;;;;;11.43;2.40;;;25.80;74.10;;;;;;4992070;28;20214;-71
2023/12/11 08:52:23;;;;;;;13.70;2.40;;;25.80;74.80;;;;;;4988039;28;20894;-70
2023/12/11 08:54:51;;;;;;;17.37;2.90;;;25.60;75.00;;;;;;4984135;28;20201;-70
2023/12/11 08:57:18;;;;;;;14.97;3.20;;;25.70;75.50;;;;;;4992008;28;20181;-67
2023/12/11 08:59:47;;;;;;;10.13;3.17;;;25.70;75.10;;;;;;4985956;28;20214;-67
2023/12/11 09:02:14;;;;;;;12.13;3.07;;;25.60;75.60;;;;;;4990105;28;20227;-72
2023/12/11 09:04:41;;;;;;;13.20;2.97;;;25.60;75.90;;;;;;4991651;28;20209;-69
2023/12/11 09:07:09;;;;;;;9.23;2.87;;;25.50;76.30;;;;;;4985270;28;20193;-70
2023/12/11 09:09:38;;;;;;;8.37;2.47;;;25.50;76.40;;;;;;4993802;28;20546;-68
2023/12/11 09:12:06;;;;;;;12.30;2.40;;;25.50;76.60;;;;;;4993850;28;20186;-67
2023/12/11 09:14:33;;;;;;;16.80;2.73;;;25.40;77.00;;;;;;4992531;28;20585;-65
2023/12/11 09:17:01;;;;;;;13.40;2.53;;;25.30;77.50;;;;;;4992377;28;20198;-65
2023/12/11 09:19:29;;;;;;;23.23;3.70;;;25.30;77.90;;;;;;4987719;28;20218;-67
2023/12/11 09:21:56;;;;;;;8.70;2.73;;;25.30;78.20;;;;;;4990415;28;20193;-68
2023/12/11 09:24:27;;;;;;;20.10;3.33;;;25.20;78.50;;;;;;4989163;28;20201;-69
2023/12/11 09:26:54;;;;;;;15.57;2.77;;;25.10;78.70;;;;;;4991278;28;20193;-64
2023/12/11 09:29:22;;;;;;;16.83;3.30;;;25.20;79.00;;;;;;4988271;28;20276;-68
2023/12/11 09:31:49;;;;;;;16.93;3.67;;;25.10;79.20;;;;;;4989920;28;20188;-68
2023/12/11 09:34:17;;;;;;;13.60;2.60;;;25.00;79.70;;;;;;4994530;28;20214;-69
2023/12/11 09:36:44;;;;;;;19.20;3.57;;;25.00;79.70;;;;;;4993452;28;20185;-68
2023/12/11 09:39:12;;;;;;;11.10;2.33;;;25.10;80.00;;;;;;4988851;28;20182;-68
2023/12/11 09:41:40;;;;;;;15.03;3.27;;;25.00;80.10;;;;;;4996028;28;20612;-65
2023/12/11 09:44:08;;;;;;;13.17;2.83;;;25.00;80.40;;;;;;4992410;28;20178;-70
2023/12/11 09:46:50;;;;;;;9.43;2.50;;;25.10;80.40;;;;;;4995526;28;20197;-66
2023/12/11 09:49:18;;;;;;;17.63;3.53;;;25.10;80.40;;;;;;4994966;28;20182;-67
2023/12/11 09:51:46;;;;;;;15.20;3.23;;;25.00;80.40;;;;;;4993749;28;20185;-66
2023/12/11 09:54:13;;;;;;;15.17;3.23;;;25.10;80.80;;;;;;4995723;28;20190;-66
2023/12/11 09:56:42;;;;;;;14.23;2.87;;;25.10;80.90;;;;;;4994765;28;20197;-65
2023/12/11 09:59:11;;;;;;;11.47;2.90;;;25.00;81.30;;;;;;4991162;28;20185;-65
2023/12/11 10:01:38;;;;;;;19.67;2.70;;;25.00;81.40;;;;;;4989296;28;20554;-65
2023/12/11 10:04:08;;;;;;;13.90;3.27;;;24.90;81.80;;;;;;4987492;28;20189;-65
2023/12/11 10:06:35;;;;;;;17.90;3.60;;;24.80;82.10;;;;;;4989367;28;20221;-67
2023/12/11 10:09:04;;;;;;;14.67;3.00;;;24.80;82.40;;;;;;4986225;28;20178;-70
2023/12/11 10:11:31;;;;;;;19.23;3.50;;;24.80;82.50;;;;;;4992443;28;20194;-68
2023/12/11 10:14:12;;;;;;;18.03;3.53;;;24.80;82.70;;;;;;4994900;28;20190;-68
2023/12/11 10:16:39;;;;;;;18.07;4.17;;;24.80;82.60;;;;;;4995032;28;20671;-70
2023/12/11 10:19:07;;;;;;;16.63;2.70;;;24.80;82.70;;;;;;4994667;28;20193;-70
2023/12/11 10:21:41;;;;;;;16.00;3.43;;;24.80;82.70;;;;;;4992586;28;20194;-69
2023/12/11 10:24:14;;;;;;;20.10;2.67;;;24.80;82.40;;;;;;4993490;28;20549;-70
2023/12/11 10:26:55;;;;;;;14.03;3.20;;;24.80;82.40;;;;;;4994807;28;22010;-69
2023/12/11 10:29:32;;;;;;;16.00;3.87;;;24.80;82.10;;;;;;4981598;28;20226;-69
2023/12/11 10:32:04;;;;;;;16.60;2.93;;;24.80;82.00;;;;;;4984193;28;20186;-70
2023/12/11 10:34:48;;;;;;;18.23;3.23;;;24.90;82.00;;;;;;4989179;28;20190;-69
2023/12/11 10:37:17;;;;;;;15.93;3.63;;;24.90;81.80;;;;;;4974272;28;20216;-69
2023/12/11 10:39:55;;;;;;;19.60;3.57;;;24.90;81.90;;;;;;4991177;28;20245;-69
2023/12/11 10:42:23;;;;;;;16.47;3.23;;;24.80;82.00;;;;;;4994693;28;20213;-67
2023/12/11 10:44:52;;;;;;;17.83;3.70;;;24.90;82.20;;;;;;4994135;28;20711;-66
2023/12/11 10:47:20;;;;;;;17.77;2.97;;;24.90;82.40;;;;;;4994147;28;20664;-66
2023/12/11 10:49:49;;;;;;;15.23;3.13;;;24.90;82.40;;;;;;4994817;28;20185;-66
2023/12/11 10:52:17;;;;;;;18.27;3.67;;;24.80;82.70;;;;;;4993894;28;20626;-68
2023/12/11 10:54:45;;;;;;;15.23;3.10;;;24.80;82.80;;;;;;4980395;28;20280;-66
2023/12/11 10:57:16;;;;;;;15.10;3.40;;;24.80;83.00;;;;;;4989163;28;20179;-66
2023/12/11 10:59:45;;;;;;;17.60;3.53;;;24.80;83.40;;;;;;4971419;28;20228;-72
2023/12/11 11:02:20;;;;;;;17.50;3.20;;;24.80;83.70;;;;;;4994486;28;20177;-70
2023/12/11 11:04:48;;;;;;;16.77;3.00;;;24.70;84.00;;;;;;4992585;28;20186;-70
2023/12/11 11:07:25;;;;;;;19.33;3.40;;;24.80;84.10;;;;;;4986495;28;20229;-67
2023/12/11 11:10:04;;;;;;;21.80;4.20;;;24.80;84.30;;;;;;4986392;28;20190;-68
2023/12/11 11:12:45;;;;;;;17.57;3.20;;;24.80;84.20;;;;;;4986926;28;20190;-66
2023/12/11 11:15:13;;;;;;;14.10;3.13;;;24.80;84.10;;;;;;4988453;28;20237;-65
2023/12/11 11:18:07;;;;;;;18.23;3.20;;;24.80;83.70;;;;;;4991712;28;20190;-66
2023/12/11 11:20:36;;;;;;;22.27;3.83;;;24.80;83.80;;;;;;4971958;28;20223;-67
2023/12/11 11:23:16;;;;;;;13.97;2.80;;;24.70;84.10;;;;;;4977546;28;20268;-67
2023/12/11 11:25:50;;;;;;;21.13;4.10;;;24.70;83.70;;;;;;4992788;28;20201;-70
2023/12/11 11:28:50;;;;;;;17.00;3.97;;;24.70;83.70;;;;;;4993604;28;20223;-67
2023/12/11 11:31:17;;;;;;;20.53;3.40;;;24.80;83.70;;;;;;4983958;28;20249;-67
2023/12/11 11:33:52;;;;;;;21.20;3.27;;;24.80;83.70;;;;;;4989887;28;20192;-68
2023/12/11 11:36:21;;;;;;;17.13;3.67;;;24.80;83.40;;;;;;4993919;28;20181;-71
2023/12/11 11:38:56;;;;;;;17.10;2.97;;;24.70;83.80;;;;;;4989470;28;20182;-70
2023/12/11 11:41:26;;;;;;;10.33;2.53;;;24.70;83.60;;;;;;4984834;28;20675;-68
2023/12/11 11:44:05;;;;;;;13.03;2.80;;;24.70;83.60;;;;;;4993109;28;20178;-68
2023/12/11 11:46:55;;;;;;;15.20;3.27;;;24.70;83.50;;;;;;4993086;28;20186;-66
2023/12/11 11:49:32;;;;;;;14.77;2.67;;;24.70;83.80;;;;;;4983772;28;20182;-68
2023/12/11 11:52:03;;;;;;;17.40;3.60;;;24.70;83.90;;;;;;4993152;28;20185;-67
2023/12/11 11:54:31;;;;;;;20.10;3.70;;;24.70;84.00;;;;;;4993750;28;20695;-70
2023/12/11 11:56:59;;;;;;;22.07;3.70;;;24.70;83.90;;;;;;4989522;28;20181;-69
2023/12/11 11:59:26;;;;;;;16.30;3.03;;;24.80;84.10;;;;;;4986311;28;20307;-66
2023/12/11 12:01:58;;;;;;;11.07;3.13;;;24.80;84.00;;;;;;4992584;28;20174;-67
2023/12/11 12:04:30;;;;;;;14.17;3.93;;;24.80;83.90;;;;;;4993122;28;20554;-66
2023/12/11 12:07:00;;;;;;;17.43;2.90;;;24.80;84.00;;;;;;4985059;28;20546;-65
2023/12/11 12:09:27;;;;;;;23.67;3.47;;;24.70;83.90;;;;;;4988937;28;20540;-66
2023/12/11 12:11:55;;;;;;;18.20;3.70;;;24.70;84.20;;;;;;4991153;28;20189;-66
2023/12/11 12:14:22;;;;;;;18.40;3.07;;;24.70;84.40;;;;;;4992434;28;20186;-69
2023/12/11 12:16:50;;;;;;;12.30;2.50;;;24.60;84.50;;;;;;4984409;28;20187;-67
2023/12/11 12:19:19;;;;;;;16.37;3.80;;;24.60;84.70;;;;;;4988138;28;20585;-66
2023/12/11 12:21:55;;;;;;;18.00;3.97;;;24.50;84.60;;;;;;4984737;28;20558;-67
2023/12/11 12:24:24;;;;;;;16.50;4.13;;;24.50;84.70;;;;;;4986468;28;20196;-69
2023/12/11 12:27:12;;;;;;;19.70;4.07;;;24.50;84.80;;;;;;4976805;28;20193;-67
2023/12/11 12:29:40;;;;;;;25.60;3.90;;;24.40;85.00;;;;;;4980559;28;20321;-69
2023/12/11 12:32:09;;;;;;;18.10;4.17;;;24.40;85.20;;;;;;4992487;28;20264;-71
2023/12/11 12:34:37;;;;;;;22.63;4.03;;;24.40;85.30;;;;;;4988679;28;20269;-71
2023/12/11 12:37:06;;;;;;;22.90;3.87;;;24.40;85.40;;;;;;4985795;28;20190;-66
2023/12/11 12:39:35;;;;;;;12.87;3.07;;;24.40;85.30;;;;;;4987557;28;20238;-67
2023/12/11 12:42:02;;;;;;;19.43;3.80;;;24.40;85.30;;;;;;4989069;28;20190;-72
2023/12/11 12:44:31;;;;;;;16.10;3.37;;;24.40;85.50;;;;;;4992644;28;20256;-71